Time;durP1;ratioP1;P1;durP2;ratioP2;P2;SDS_P1;SDS_P2;PMS_P1;PMS_P2;Temp;Humidity;BMP_temperature;BMP_pressure;BME280_temperature;BME280_humidity;BME280_pressure;Samples;Min_cycle;Max_cycle;Signal;HPM_P1;HPM_P2
2022/08/14 00:02:00;;;;;;;;;7.00;7.00;;;28.85;97107.14;;;;119042;1190;25482;-65
2022/08/14 00:04:32;;;;;;;;;6.25;6.25;;;28.85;97105.70;;;;119043;1189;24863;-67
2022/08/14 00:07:09;;;;;;;;;9.50;8.25;;;28.87;97106.77;;;;119034;1189;26504;-65
2022/08/14 00:09:37;;;;;;;;;9.00;8.00;;;28.87;97108.06;;;;119050;1190;25633;-66
2022/08/14 00:12:25;;;;;;;;;6.25;6.25;;;28.91;97108.12;;;;119021;1189;25811;-68
2022/08/14 00:15:12;;;;;;;;;7.75;7.00;;;28.94;97105.34;;;;119046;1189;26047;-64
2022/08/14 00:17:43;;;;;;;;;7.50;7.50;;;28.94;97101.80;;;;119023;1189;25745;-66
2022/08/14 00:20:26;;;;;;;;;7.00;6.25;;;28.93;97098.98;;;;119035;1190;24990;-65
2022/08/14 00:23:09;;;;;;;;;7.00;7.00;;;28.96;97100.38;;;;119037;1190;25831;-65
2022/08/14 00:25:46;;;;;;;;;8.50;8.50;;;28.97;97098.75;;;;119026;1190;25674;-65
2022/08/14 00:28:26;;;;;;;;;8.25;7.25;;;28.97;97098.92;;;;119042;1189;24908;-64
2022/08/14 00:30:59;;;;;;;;;6.25;5.00;;;28.96;97098.13;;;;119049;1188;25979;-64
2022/08/14 00:33:28;;;;;;;;;8.25;8.25;;;28.93;97094.51;;;;119182;1188;25151;-65
2022/08/14 00:36:16;;;;;;;;;6.00;5.75;;;28.95;97091.92;;;;119183;1188;25643;-65
2022/08/14 00:39:04;;;;;;;;;9.25;8.00;;;28.99;97090.77;;;;119177;1188;25526;-65
2022/08/14 00:41:36;;;;;;;;;7.00;7.00;;;28.98;97087.02;;;;119169;1188;24821;-65
2022/08/14 00:44:06;;;;;;;;;5.67;5.33;;;28.94;97087.38;;;;119185;1188;25702;-65
2022/08/14 00:46:39;;;;;;;;;7.75;7.75;;;28.91;97087.48;;;;119170;1188;24896;-65
2022/08/14 00:49:11;;;;;;;;;10.25;8.25;;;28.88;97086.02;;;;119195;1187;25204;-65
2022/08/14 00:51:43;;;;;;;;;8.00;7.25;;;28.87;97082.84;;;;119174;1188;25667;-65
2022/08/14 00:54:12;;;;;;;;;7.50;7.00;;;28.86;97081.77;;;;119203;1188;24848;-65
2022/08/14 00:56:50;;;;;;;;;7.25;6.00;;;28.87;97082.09;;;;119175;1187;26136;-65
2022/08/14 00:59:24;;;;;;;;;5.50;5.50;;;28.87;97083.02;;;;119167;1188;25304;-64
2022/08/14 01:01:56;;;;;;;;;7.50;7.50;;;28.86;97081.66;;;;119084;1187;25713;-64
2022/08/14 01:04:27;;;;;;;;;8.00;6.00;;;28.86;97081.57;;;;119186;1187;25516;-64
2022/08/14 01:07:19;;;;;;;;;9.00;9.00;;;28.90;97077.04;;;;119184;1187;25287;-65
2022/08/14 01:09:50;;;;;;;;;9.00;8.00;;;28.92;97078.08;;;;119032;1189;25518;-65
2022/08/14 01:12:20;;;;;;;;;8.25;7.00;;;28.88;97077.44;;;;119201;1187;26208;-65
2022/08/14 01:14:56;;;;;;;;;10.00;9.00;;;28.88;97076.90;;;;119174;1188;26741;-65
2022/08/14 01:23:12;;;;;;;;;6.50;6.50;;;28.87;97072.39;;;;119198;1188;25700;-66
2022/08/14 01:25:47;;;;;;;;;5.75;5.75;;;28.87;97070.79;;;;119199;1187;25616;-65
2022/08/14 01:28:15;;;;;;;;;7.00;6.25;;;28.87;97074.23;;;;119190;1187;25605;-64
2022/08/14 01:31:14;;;;;;;;;8.50;7.50;;;28.90;97072.80;;;;119187;1188;25676;-64
2022/08/14 01:33:46;;;;;;;;;8.50;8.25;;;28.92;97072.45;;;;119213;1187;25689;-64
2022/08/14 01:36:37;;;;;;;;;8.25;7.50;;;28.95;97066.48;;;;119178;1188;25956;-65
2022/08/14 01:39:10;;;;;;;;;6.75;6.25;;;28.94;97068.95;;;;119138;1187;24885;-65
2022/08/14 01:41:42;;;;;;;;;8.25;5.00;;;28.91;97072.83;;;;119135;1187;25234;-70
2022/08/14 01:44:14;;;;;;;;;8.00;7.50;;;28.89;97074.75;;;;119158;1188;26974;-66
2022/08/14 01:47:11;;;;;;;;;8.00;6.25;;;28.93;97077.27;;;;119121;1188;25144;-66
2022/08/14 01:49:50;;;;;;;;;6.50;5.75;;;28.98;97077.14;;;;119196;1187;25612;-66
2022/08/14 01:52:37;;;;;;;;;5.75;5.75;;;28.99;97077.56;;;;119025;1189;25264;-66
2022/08/14 01:55:30;;;;;;;;;6.00;5.50;;;29.00;97075.97;;;;119022;1189;25743;-65
2022/08/14 01:58:00;;;;;;;;;9.25;7.25;;;28.98;97072.27;;;;119010;1189;25338;-66
2022/08/14 02:00:52;;;;;;;;;8.25;6.00;;;28.98;97069.31;;;;119005;1190;24710;-64
2022/08/14 02:03:25;;;;;;;;;8.00;6.00;;;28.97;97067.26;;;;119037;1190;25835;-67
2022/08/14 02:05:58;;;;;;;;;9.50;6.25;;;28.93;97067.82;;;;119011;1189;25883;-64
2022/08/14 02:08:47;;;;;;;;;7.00;5.25;;;28.96;97064.06;;;;119005;1190;25750;-64
2022/08/14 02:11:23;;;;;;;;;8.25;6.75;;;28.95;97061.75;;;;119041;1189;25213;-64
2022/08/14 02:14:06;;;;;;;;;8.00;7.00;;;28.92;97061.30;;;;119009;1189;25507;-64
2022/08/14 02:16:40;;;;;;;;;7.50;7.50;;;28.89;97062.60;;;;119055;1189;25170;-64
2022/08/14 02:19:12;;;;;;;;;7.00;6.50;;;28.86;97069.08;;;;119034;1189;26161;-64
2022/08/14 02:21:46;;;;;;;;;5.75;5.25;;;28.84;97066.38;;;;119041;1189;25525;-64
2022/08/14 02:24:22;;;;;;;;;10.00;9.00;;;28.83;97065.67;;;;119020;1190;24979;-64
2022/08/14 02:27:09;;;;;;;;;12.50;7.50;;;28.88;97070.32;;;;119049;1190;24845;-67
2022/08/14 02:29:57;;;;;;;;;10.00;7.50;;;28.93;97070.92;;;;119041;1189;25503;-66
2022/08/14 02:32:30;;;;;;;;;5.25;5.25;;;28.92;97073.32;;;;119026;1190;26825;-67
2022/08/14 02:35:17;;;;;;;;;8.00;8.00;;;28.88;97072.59;;;;119038;1189;25604;-67
2022/08/14 02:37:47;;;;;;;;;5.00;5.00;;;28.90;97075.00;;;;119029;1189;25525;-71
2022/08/14 02:40:18;;;;;;;;;7.25;7.25;;;28.88;97073.30;;;;119004;1190;24937;-67
2022/08/14 02:42:47;;;;;;;;;5.00;5.00;;;28.85;97073.66;;;;119032;1188;25494;-66
2022/08/14 02:45:31;;;;;;;;;6.00;4.75;;;28.85;97071.44;;;;119014;1190;25547;-64
2022/08/14 02:48:13;;;;;;;;;7.25;6.50;;;28.88;97071.99;;;;119042;1188;25593;-65
2022/08/14 02:51:03;;;;;;;;;7.50;5.75;;;28.94;97073.55;;;;119031;1190;24781;-64
2022/08/14 02:53:33;;;;;;;;;8.25;8.25;;;28.92;97070.36;;;;119041;1190;25390;-65
2022/08/14 02:56:04;;;;;;;;;5.25;4.00;;;28.87;97069.96;;;;119060;1190;25451;-65
2022/08/14 02:58:55;;;;;;;;;6.00;5.50;;;28.90;97070.02;;;;119031;1190;25466;-65
2022/08/14 03:01:27;;;;;;;;;8.75;7.00;;;28.90;97072.84;;;;119011;1189;25303;-65
2022/08/14 03:04:12;;;;;;;;;7.00;6.00;;;28.90;97079.05;;;;119044;1190;25696;-65
2022/08/14 03:06:44;;;;;;;;;6.75;6.25;;;28.88;97079.52;;;;119052;1189;25032;-65
2022/08/14 03:09:26;;;;;;;;;7.00;7.00;;;28.88;97078.35;;;;119023;1189;26484;-65
2022/08/14 03:12:13;;;;;;;;;5.75;5.00;;;28.92;97081.33;;;;119030;1190;25565;-65
2022/08/14 03:15:01;;;;;;;;;8.75;7.25;;;28.94;97085.24;;;;119046;1190;25111;-65
2022/08/14 03:17:30;;;;;;;;;5.75;4.75;;;28.90;97087.47;;;;119058;1189;25340;-65
2022/08/14 03:20:20;;;;;;;;;9.00;7.50;;;28.91;97092.42;;;;119047;1190;26139;-65
2022/08/14 03:22:50;;;;;;;;;9.50;6.50;;;28.90;97091.84;;;;119026;1189;25709;-65
2022/08/14 03:25:21;;;;;;;;;7.67;5.33;;;28.85;97094.56;;;;119023;1189;25751;-65
2022/08/14 03:27:49;;;;;;;;;6.25;5.50;;;28.81;97098.67;;;;119045;1190;26397;-64
2022/08/14 03:30:30;;;;;;;;;4.00;4.00;;;28.82;97100.61;;;;118996;1188;25003;-64
2022/08/14 03:33:09;;;;;;;;;6.67;6.67;;;28.84;97103.85;;;;119072;1186;25877;-64
2022/08/14 03:35:40;;;;;;;;;8.50;7.00;;;28.83;97104.77;;;;119034;1190;25490;-64
2022/08/14 03:38:29;;;;;;;;;7.00;5.50;;;28.86;97104.04;;;;119054;1187;26338;-64
2022/08/14 03:41:20;;;;;;;;;5.50;5.50;;;28.92;97109.42;;;;119082;1188;25104;-64
2022/08/14 03:43:56;;;;;;;;;7.00;7.00;;;28.90;97112.39;;;;119082;1188;25375;-64
2022/08/14 03:46:44;;;;;;;;;8.25;7.25;;;28.92;97112.49;;;;119098;1187;25327;-64
2022/08/14 03:49:23;;;;;;;;;6.00;6.00;;;28.92;97111.45;;;;119034;1188;25613;-64
2022/08/14 03:52:03;;;;;;;;;5.25;5.25;;;28.89;97107.81;;;;119117;1188;26078;-64
2022/08/14 03:54:51;;;;;;;;;8.00;7.50;;;28.93;97107.64;;;;119005;1190;25107;-64
2022/08/14 03:57:19;;;;;;;;;6.75;6.75;;;28.92;97110.02;;;;119147;1189;25605;-64
2022/08/14 03:59:49;;;;;;;;;9.00;8.25;;;28.85;97107.39;;;;119135;1187;25317;-64
2022/08/14 04:02:17;;;;;;;;;7.25;6.25;;;28.81;97106.76;;;;119006;1190;25426;-65
2022/08/14 04:05:06;;;;;;;;;4.00;3.25;;;28.84;97110.97;;;;119026;1190;25097;-64
2022/08/14 04:07:40;;;;;;;;;7.25;6.00;;;28.86;97114.72;;;;119177;1188;25244;-64
2022/08/14 04:10:28;;;;;;;;;7.25;6.00;;;28.89;97117.78;;;;119144;1188;25247;-64
2022/08/14 04:13:01;;;;;;;;;5.25;5.25;;;28.88;97117.73;;;;119157;1188;25001;-65
2022/08/14 04:15:34;;;;;;;;;6.00;5.00;;;28.84;97114.91;;;;119176;1188;25258;-65
2022/08/14 04:18:21;;;;;;;;;5.75;5.75;;;28.87;97112.61;;;;119174;1188;25048;-66
2022/08/14 04:20:50;;;;;;;;;7.25;6.50;;;28.86;97111.80;;;;119061;1188;25896;-65
2022/08/14 04:23:23;;;;;;;;;4.50;4.50;;;28.83;97113.81;;;;119048;1189;25012;-64
2022/08/14 04:26:02;;;;;;;;;6.00;6.00;;;28.83;97110.11;;;;119150;1189;25169;-67
2022/08/14 04:28:31;;;;;;;;;7.75;6.50;;;28.81;97108.18;;;;119045;1187;25393;-64
2022/08/14 04:31:20;;;;;;;;;8.25;6.50;;;28.85;97108.34;;;;119095;1188;25518;-64
2022/08/14 04:34:07;;;;;;;;;7.75;7.75;;;28.91;97111.45;;;;119019;1190;25494;-66
2022/08/14 04:45:22;;;;;;;;;5.75;4.50;;;28.81;97115.56;;;;119106;1188;26294;-66
2022/08/14 04:50:48;;;;;;;;;7.25;7.25;;;28.78;97115.23;;;;119104;1188;25113;-65
2022/08/14 04:53:26;;;;;;;;;7.50;6.25;;;28.77;97117.48;;;;119117;1187;26193;-68
2022/08/14 04:56:04;;;;;;;;;5.50;5.50;;;28.79;97115.90;;;;119120;1188;25784;-71
2022/08/14 04:58:38;;;;;;;;;8.25;6.75;;;28.79;97108.22;;;;119130;1187;25114;-69
2022/08/14 05:01:07;;;;;;;;;7.75;4.25;;;28.77;97107.61;;;;119157;1188;25080;-66
2022/08/14 05:03:46;;;;;;;;;9.00;7.50;;;28.79;97104.70;;;;119126;1187;25224;-67
2022/08/14 05:06:17;;;;;;;;;7.50;7.00;;;28.79;97103.16;;;;119145;1187;26117;-65
2022/08/14 05:09:06;;;;;;;;;6.50;4.75;;;28.83;97105.42;;;;119108;1188;26254;-70
2022/08/14 05:11:41;;;;;;;;;5.25;4.75;;;28.84;97106.05;;;;119129;1187;24947;-66
2022/08/14 05:14:11;;;;;;;;;6.75;6.75;;;28.82;97105.92;;;;119122;1189;25089;-67
2022/08/14 05:16:59;;;;;;;;;5.25;5.25;;;28.84;97103.17;;;;119049;1188;25832;-67
2022/08/14 05:19:29;;;;;;;;;8.00;8.00;;;28.84;97104.72;;;;119057;1189;25512;-66
2022/08/14 05:22:00;;;;;;;;;4.00;4.00;;;28.81;97103.33;;;;119137;1188;24936;-66
2022/08/14 05:24:48;;;;;;;;;7.00;7.00;;;28.83;97100.69;;;;119139;1187;26401;-65
2022/08/14 05:27:19;;;;;;;;;6.50;5.25;;;28.85;97100.85;;;;119026;1190;25257;-64
2022/08/14 05:29:51;;;;;;;;;10.25;7.75;;;28.84;97101.23;;;;119040;1190;26252;-65
2022/08/14 05:32:22;;;;;;;;;8.33;7.67;;;28.84;97102.89;;;;119143;1188;25693;-66
2022/08/14 05:34:56;;;;;;;;;7.50;7.50;;;28.83;97101.21;;;;119163;1187;26046;-70
2022/08/14 05:37:26;;;;;;;;;11.67;8.67;;;28.83;97101.11;;;;119176;1188;25182;-65
2022/08/14 05:39:57;;;;;;;;;10.50;8.00;;;28.83;97094.89;;;;119016;1190;26101;-68
2022/08/14 05:42:26;;;;;;;;;6.00;6.00;;;28.81;97095.28;;;;119184;1187;25850;-69
2022/08/14 05:45:02;;;;;;;;;8.25;5.75;;;28.82;97094.09;;;;119176;1188;25908;-66
2022/08/14 05:47:31;;;;;;;;;8.33;4.67;;;28.81;97098.77;;;;119053;1190;25289;-66
2022/08/14 05:50:09;;;;;;;;;11.75;8.75;;;28.81;97101.49;;;;119169;1188;24932;-68
2022/08/14 05:52:48;;;;;;;;;5.75;5.25;;;28.85;97101.11;;;;119183;1189;25018;-68
2022/08/14 05:55:18;;;;;;;;;7.50;6.00;;;28.86;97102.34;;;;119205;1188;25508;-70
2022/08/14 05:57:54;;;;;;;;;6.25;6.25;;;28.84;97095.75;;;;119157;1188;24924;-67
2022/08/14 06:00:30;;;;;;;;;8.00;5.50;;;28.84;97093.16;;;;119189;1188;24904;-71
2022/08/14 06:03:08;;;;;;;;;7.25;7.25;;;28.85;97090.35;;;;119196;1188;25398;-67
2022/08/14 06:05:37;;;;;;;;;2.25;2.00;;;28.85;97087.98;;;;119043;1189;25156;-67
2022/08/14 06:08:16;;;;;;;;;6.75;5.25;;;28.83;97083.31;;;;119152;1187;25988;-67
2022/08/14 06:11:06;;;;;;;;;12.00;8.75;;;28.91;97084.39;;;;119154;1187;24870;-68
2022/08/14 06:13:39;;;;;;;;;6.50;6.50;;;28.92;97086.39;;;;119119;1187;25616;-66
2022/08/14 06:16:16;;;;;;;;;6.00;5.75;;;28.91;97087.44;;;;119133;1187;25675;-69
2022/08/14 06:18:47;;;;;;;;;7.75;7.00;;;28.89;97083.12;;;;119127;1188;25194;-70
2022/08/14 06:21:21;;;;;;;;;6.67;6.33;;;28.87;97083.56;;;;119114;1188;24769;-67
2022/08/14 06:23:50;;;;;;;;;5.25;5.25;;;28.86;97080.53;;;;119130;1187;26213;-64
2022/08/14 06:26:18;;;;;;;;;8.00;6.25;;;28.85;97080.52;;;;119160;1188;25444;-63
2022/08/14 06:28:49;;;;;;;;;6.75;6.25;;;28.84;97077.55;;;;119152;1188;25690;-64
2022/08/14 06:31:19;;;;;;;;;7.50;6.25;;;28.84;97077.11;;;;119138;1188;25857;-64
2022/08/14 06:33:48;;;;;;;;;9.75;9.00;;;28.83;97074.20;;;;119149;1187;25241;-65
2022/08/14 06:36:37;;;;;;;;;8.75;7.25;;;28.88;97074.11;;;;119137;1187;25043;-64
2022/08/14 06:39:07;;;;;;;;;9.00;8.75;;;28.89;97072.60;;;;119140;1188;25237;-65
2022/08/14 06:41:39;;;;;;;;;8.75;5.75;;;28.87;97073.91;;;;119129;1189;26582;-65
2022/08/14 06:44:27;;;;;;;;;7.25;6.50;;;28.92;97074.28;;;;119135;1188;25491;-65
2022/08/14 06:47:01;;;;;;;;;7.50;7.25;;;28.93;97073.76;;;;119147;1189;24875;-65
2022/08/14 06:49:29;;;;;;;;;9.25;8.00;;;28.90;97074.00;;;;119139;1189;26279;-66
2022/08/14 06:52:15;;;;;;;;;7.50;5.50;;;28.92;97071.92;;;;119138;1188;25354;-65
2022/08/14 06:54:44;;;;;;;;;9.25;8.25;;;28.92;97072.85;;;;119126;1189;24958;-65
2022/08/14 06:57:12;;;;;;;;;9.00;7.50;;;28.90;97074.19;;;;119132;1189;25228;-65
2022/08/14 06:59:41;;;;;;;;;7.00;7.00;;;28.86;97073.04;;;;119110;1188;25021;-65
2022/08/14 07:07:49;;;;;;;;;7.00;5.25;;;28.85;97072.88;;;;119083;1188;25755;-65
2022/08/14 07:10:17;;;;;;;;;10.25;6.75;;;28.83;97072.59;;;;119095;1188;25705;-65
2022/08/14 07:12:45;;;;;;;;;5.00;5.00;;;28.81;97069.19;;;;119079;1186;25333;-68
2022/08/14 07:15:33;;;;;;;;;7.00;7.00;;;28.86;97070.63;;;;119094;1189;25479;-65
2022/08/14 07:18:10;;;;;;;;;6.75;6.75;;;28.90;97067.90;;;;119094;1187;25546;-67
2022/08/14 07:20:40;;;;;;;;;10.00;10.00;;;28.89;97064.01;;;;119090;1189;24949;-65
2022/08/14 07:23:09;;;;;;;;;9.00;6.50;;;28.87;97058.72;;;;119087;1189;25594;-66
2022/08/14 07:25:49;;;;;;;;;9.00;9.00;;;28.88;97055.58;;;;119098;1189;25015;-64
2022/08/14 07:28:22;;;;;;;;;9.50;6.50;;;28.89;97051.77;;;;119068;1188;25271;-65
2022/08/14 07:30:56;;;;;;;;;5.00;5.00;;;28.89;97049.23;;;;119094;1188;25429;-65
2022/08/14 07:33:47;;;;;;;;;13.25;9.25;;;28.92;97041.56;;;;119083;1189;25703;-65
2022/08/14 07:36:19;;;;;;;;;7.00;5.75;;;28.97;97041.58;;;;119040;1190;26232;-65
2022/08/14 07:38:58;;;;;;;;;6.50;5.25;;;28.99;97040.02;;;;119091;1187;25265;-65
2022/08/14 07:41:28;;;;;;;;;6.75;6.75;;;28.97;97042.42;;;;119097;1188;25581;-65
2022/08/14 07:44:03;;;;;;;;;9.00;7.75;;;28.95;97042.42;;;;119082;1189;25422;-64
2022/08/14 07:46:53;;;;;;;;;7.33;7.33;;;29.00;97043.63;;;;119096;1189;25731;-65
2022/08/14 07:49:23;;;;;;;;;8.25;7.25;;;28.99;97044.05;;;;119092;1189;25091;-64
2022/08/14 07:51:51;;;;;;;;;9.00;7.33;;;28.95;97043.64;;;;119050;1190;25240;-64
2022/08/14 07:54:19;;;;;;;;;7.75;4.75;;;28.92;97048.05;;;;119153;1188;24973;-64
2022/08/14 07:56:58;;;;;;;;;9.25;8.00;;;28.93;97047.58;;;;119130;1188;25643;-64
2022/08/14 07:59:27;;;;;;;;;11.75;9.00;;;28.93;97045.55;;;;119138;1187;25560;-64
2022/08/14 08:02:11;;;;;;;;;7.75;7.75;;;28.95;97040.61;;;;119151;1187;25398;-65
2022/08/14 08:04:49;;;;;;;;;8.25;6.50;;;28.96;97037.22;;;;119160;1188;26078;-65
2022/08/14 08:07:26;;;;;;;;;6.00;6.00;;;28.96;97036.38;;;;119144;1188;26249;-65
2022/08/14 08:09:59;;;;;;;;;6.25;6.00;;;28.96;97033.44;;;;119142;1187;24946;-64
2022/08/14 08:12:30;;;;;;;;;8.75;8.25;;;28.94;97032.11;;;;119074;1188;26225;-64
2022/08/14 08:14:59;;;;;;;;;8.75;8.00;;;28.93;97033.09;;;;119063;1189;25441;-64
2022/08/14 08:17:36;;;;;;;;;9.50;7.00;;;28.94;97031.17;;;;119094;1188;25509;-66
2022/08/14 08:20:09;;;;;;;;;9.75;7.25;;;28.94;97033.33;;;;119091;1188;25725;-64
2022/08/14 08:22:40;;;;;;;;;10.00;8.25;;;28.94;97029.80;;;;119092;1189;25648;-65
2022/08/14 08:25:11;;;;;;;;;8.33;6.33;;;28.93;97026.98;;;;119090;1188;25384;-64
2022/08/14 08:28:23;;;;;;;;;8.33;6.33;;;28.94;97027.92;;;;119102;1188;25533;-64
2022/08/14 08:31:02;;;;;;;;;8.50;7.50;;;29.02;97030.56;;;;118974;1189;25000;-66
2022/08/14 08:33:34;;;;;;;;;8.00;8.00;;;29.02;97026.02;;;;119086;1189;25982;-64
2022/08/14 08:36:07;;;;;;;;;8.50;8.00;;;28.99;97025.94;;;;119064;1187;26316;-65
2022/08/14 08:38:48;;;;;;;;;11.50;8.25;;;29.00;97023.20;;;;119087;1189;25975;-65
2022/08/14 08:41:44;;;;;;;;;7.75;7.00;;;29.07;97022.64;;;;119048;1188;24847;-65
2022/08/14 08:44:16;;;;;;;;;7.25;7.25;;;29.07;97019.14;;;;119022;1189;25951;-65
2022/08/14 08:47:04;;;;;;;;;6.75;6.75;;;29.07;97017.59;;;;119038;1189;25308;-65
2022/08/14 08:49:47;;;;;;;;;7.25;7.25;;;29.07;97019.50;;;;119044;1188;26367;-65
2022/08/14 08:52:30;;;;;;;;;10.00;8.75;;;29.11;97015.66;;;;119080;1187;26174;-65
2022/08/14 08:54:59;;;;;;;;;12.00;8.50;;;29.09;97011.55;;;;119118;1189;25827;-65
2022/08/14 08:57:36;;;;;;;;;7.00;6.25;;;29.05;97005.78;;;;119130;1189;25183;-65
2022/08/14 09:00:23;;;;;;;;;7.50;7.50;;;29.02;97001.69;;;;119111;1187;26042;-65
2022/08/14 09:03:08;;;;;;;;;7.50;7.00;;;29.05;97003.41;;;;119112;1187;25255;-66
2022/08/14 09:05:48;;;;;;;;;11.25;8.25;;;29.09;97002.30;;;;119146;1189;25465;-67
2022/08/14 09:08:24;;;;;;;;;6.33;6.33;;;29.11;96997.23;;;;119164;1188;25699;-67
2022/08/14 09:11:01;;;;;;;;;11.00;8.00;;;29.11;96994.70;;;;119147;1189;25504;-68
2022/08/14 09:13:52;;;;;;;;;11.75;9.00;;;29.14;96991.60;;;;119141;1188;24821;-66
2022/08/14 09:16:23;;;;;;;;;12.75;8.00;;;29.12;96987.94;;;;119145;1187;24987;-64
2022/08/14 09:18:53;;;;;;;;;10.25;9.25;;;29.08;96987.64;;;;119128;1187;25339;-65
2022/08/14 09:21:22;;;;;;;;;10.50;7.50;;;29.04;96984.63;;;;119139;1187;25664;-64
2022/08/14 09:23:53;;;;;;;;;9.25;8.75;;;29.01;96981.64;;;;119136;1188;24957;-65
2022/08/14 09:26:43;;;;;;;;;9.00;8.50;;;29.06;96977.69;;;;119162;1188;25070;-65
2022/08/14 09:29:17;;;;;;;;;6.25;6.25;;;29.07;96976.64;;;;119065;1188;24808;-67
2022/08/14 09:31:57;;;;;;;;;8.00;8.00;;;29.05;96974.07;;;;119096;1187;26180;-70
2022/08/14 09:34:43;;;;;;;;;8.75;6.25;;;29.04;96969.52;;;;119004;1189;25234;-69
2022/08/14 09:37:33;;;;;;;;;8.00;7.25;;;29.06;96962.60;;;;119111;1188;24905;-68
2022/08/14 09:40:07;;;;;;;;;10.00;7.75;;;29.04;96960.27;;;;119153;1188;25031;-65
2022/08/14 09:42:55;;;;;;;;;6.50;6.50;;;29.01;96954.48;;;;119151;1189;25050;-71
2022/08/14 09:45:48;;;;;;;;;9.33;7.33;;;29.00;96947.85;;;;119112;1187;25130;-71
2022/08/14 09:48:22;;;;;;;;;11.00;9.50;;;28.98;96940.84;;;;119120;1188;25011;-69
2022/08/14 09:50:58;;;;;;;;;9.25;9.25;;;28.98;96939.30;;;;119162;1187;25223;-66
2022/08/14 09:53:40;;;;;;;;;9.50;8.75;;;28.97;96943.66;;;;119136;1188;25205;-67
2022/08/14 09:56:28;;;;;;;;;10.00;8.00;;;29.04;96939.30;;;;119162;1188;25435;-66
2022/08/14 09:59:13;;;;;;;;;8.25;6.25;;;29.03;96939.64;;;;119149;1188;26991;-65
2022/08/14 10:01:43;;;;;;;;;15.75;8.75;;;29.04;96937.77;;;;119162;1188;24908;-65
2022/08/14 10:04:24;;;;;;;;;7.25;7.25;;;29.06;96934.66;;;;119184;1188;25002;-65
2022/08/14 10:07:04;;;;;;;;;7.75;7.25;;;29.07;96927.38;;;;118972;1190;25609;-65
2022/08/14 10:09:32;;;;;;;;;14.50;9.25;;;29.05;96925.48;;;;119161;1186;25234;-65
2022/08/14 10:12:05;;;;;;;;;10.00;8.50;;;29.02;96924.18;;;;119049;1189;25226;-64
2022/08/14 10:14:45;;;;;;;;;12.00;8.75;;;29.04;96927.02;;;;119172;1187;25771;-65
2022/08/14 10:17:25;;;;;;;;;8.75;8.75;;;29.06;96922.66;;;;119157;1187;25088;-64
2022/08/14 10:20:07;;;;;;;;;7.00;7.00;;;29.08;96919.39;;;;119174;1188;25673;-65
2022/08/14 10:22:55;;;;;;;;;9.00;7.25;;;29.13;96919.02;;;;118978;1190;25573;-65
2022/08/14 10:25:43;;;;;;;;;7.25;7.25;;;29.16;96910.46;;;;119127;1188;24776;-65
2022/08/14 10:28:14;;;;;;;;;10.67;8.33;;;29.13;96910.45;;;;119125;1187;26193;-65
2022/08/14 10:31:02;;;;;;;;;12.00;9.50;;;29.15;96906.10;;;;118953;1190;26505;-65
2022/08/14 10:33:32;;;;;;;;;7.25;6.00;;;29.14;96908.75;;;;119028;1190;25135;-65
2022/08/14 10:36:01;;;;;;;;;9.50;7.25;;;29.08;96909.27;;;;119053;1190;26510;-65
2022/08/14 10:38:33;;;;;;;;;8.50;8.00;;;29.05;96906.31;;;;119037;1189;24961;-65
2022/08/14 10:41:12;;;;;;;;;9.25;7.75;;;29.02;96902.52;;;;119027;1189;24920;-65
2022/08/14 10:43:41;;;;;;;;;6.00;5.00;;;29.02;96898.59;;;;118980;1191;25237;-65
2022/08/14 10:46:14;;;;;;;;;7.50;6.75;;;29.00;96895.40;;;;119049;1190;25796;-66
2022/08/14 10:49:02;;;;;;;;;8.50;8.50;;;29.07;96895.32;;;;119046;1189;25455;-67
2022/08/14 10:51:33;;;;;;;;;5.25;5.25;;;29.07;96896.66;;;;119052;1190;25102;-67
2022/08/14 10:54:09;;;;;;;;;8.50;7.50;;;29.07;96895.29;;;;119053;1189;24914;-67
2022/08/14 10:57:24;;;;;;;;;14.00;10.25;;;29.12;96894.80;;;;119042;1189;24879;-67
2022/08/14 10:59:55;;;;;;;;;8.00;8.00;;;29.13;96893.33;;;;119044;1190;25715;-66
2022/08/14 11:02:29;;;;;;;;;10.25;8.25;;;29.08;96891.10;;;;119033;1187;24930;-65
2022/08/14 11:05:18;;;;;;;;;7.75;5.00;;;29.13;96890.86;;;;119019;1190;25914;-66
2022/08/14 11:07:55;;;;;;;;;10.67;9.00;;;29.12;96885.91;;;;119039;1188;25331;-66
2022/08/14 11:10:39;;;;;;;;;6.75;6.75;;;29.07;96879.20;;;;119062;1190;25344;-68
2022/08/14 11:13:18;;;;;;;;;10.00;5.50;;;29.09;96873.54;;;;119043;1190;24976;-65
2022/08/14 11:15:50;;;;;;;;;4.25;4.25;;;29.11;96868.95;;;;119033;1190;26164;-65
2022/08/14 11:18:19;;;;;;;;;9.25;5.50;;;29.10;96863.90;;;;119036;1189;25673;-65
2022/08/14 11:20:59;;;;;;;;;8.00;7.50;;;29.10;96859.08;;;;119060;1189;25781;-65
2022/08/14 11:23:35;;;;;;;;;8.50;6.00;;;29.09;96853.80;;;;119040;1190;24900;-65
2022/08/14 11:26:07;;;;;;;;;5.50;5.50;;;29.09;96854.84;;;;119039;1189;26412;-64
2022/08/14 11:28:40;;;;;;;;;9.25;9.25;;;29.09;96856.35;;;;119037;1190;26215;-64
2022/08/14 11:31:20;;;;;;;;;7.00;5.25;;;29.10;96851.28;;;;119027;1189;26152;-65
2022/08/14 11:33:56;;;;;;;;;8.50;8.00;;;29.10;96849.93;;;;119045;1190;25682;-65
2022/08/14 11:36:27;;;;;;;;;11.25;9.50;;;29.09;96848.52;;;;119097;1188;25798;-65
2022/08/14 11:39:19;;;;;;;;;6.25;6.25;;;29.16;96848.63;;;;119079;1189;26412;-65
2022/08/14 11:42:06;;;;;;;;;10.00;9.67;;;29.20;96851.62;;;;119007;1190;26175;-64
2022/08/14 11:45:01;;;;;;;;;7.25;7.00;;;29.26;96849.43;;;;119084;1189;25694;-65
2022/08/14 11:47:36;;;;;;;;;10.75;7.25;;;29.25;96845.67;;;;119024;1189;25746;-65
2022/08/14 11:50:29;;;;;;;;;9.25;7.50;;;29.29;96842.52;;;;119007;1190;25090;-64
2022/08/14 11:53:06;;;;;;;;;7.00;7.00;;;29.29;96843.63;;;;119086;1188;25339;-65
2022/08/14 11:55:37;;;;;;;;;8.00;6.25;;;29.26;96845.70;;;;119066;1189;25006;-65
2022/08/14 11:58:08;;;;;;;;;9.75;7.75;;;29.22;96848.29;;;;119117;1187;25385;-66
2022/08/14 12:00:52;;;;;;;;;12.75;7.25;;;29.20;96846.65;;;;119057;1189;25461;-67
2022/08/14 12:03:20;;;;;;;;;9.50;8.50;;;29.19;96843.38;;;;119144;1189;24965;-69
2022/08/14 12:06:11;;;;;;;;;6.25;6.25;;;29.21;96842.77;;;;119086;1188;25181;-67
2022/08/14 12:08:59;;;;;;;;;8.50;8.50;;;29.27;96838.15;;;;119143;1188;24831;-67
2022/08/14 12:11:38;;;;;;;;;7.00;7.00;;;29.26;96838.23;;;;119172;1188;25337;-66
2022/08/14 12:14:12;;;;;;;;;5.75;5.00;;;29.26;96838.80;;;;119166;1188;25709;-66
2022/08/14 12:17:03;;;;;;;;;8.75;7.50;;;29.31;96841.66;;;;119114;1188;25633;-70
2022/08/14 12:19:43;;;;;;;;;9.50;6.00;;;29.29;96839.70;;;;119024;1190;25508;-68
2022/08/14 12:22:12;;;;;;;;;7.75;6.25;;;29.28;96841.67;;;;119018;1189;25551;-68
2022/08/14 12:24:56;;;;;;;;;6.00;6.00;;;29.30;96839.11;;;;119035;1190;25342;-65
2022/08/14 12:27:48;;;;;;;;;15.00;10.00;;;29.27;96839.77;;;;119019;1189;25478;-65
2022/08/14 12:30:28;;;;;;;;;7.00;5.50;;;29.27;96840.73;;;;119046;1190;25768;-65
2022/08/14 12:33:18;;;;;;;;;7.00;6.00;;;29.27;96838.67;;;;119060;1190;25207;-65
2022/08/14 12:35:52;;;;;;;;;12.00;6.75;;;29.28;96836.20;;;;119024;1189;24865;-65
2022/08/14 12:38:36;;;;;;;;;8.25;7.75;;;29.27;96833.54;;;;118977;1190;25946;-65
2022/08/14 12:41:21;;;;;;;;;8.50;5.50;;;29.24;96832.73;;;;119035;1190;25413;-65
2022/08/14 12:43:57;;;;;;;;;10.50;6.75;;;29.25;96832.65;;;;119057;1190;24677;-64
2022/08/14 12:46:34;;;;;;;;;9.25;7.75;;;29.23;96830.96;;;;119030;1190;24851;-64
2022/08/14 12:49:09;;;;;;;;;10.67;9.00;;;29.22;96827.27;;;;119030;1190;26258;-64
2022/08/14 12:51:38;;;;;;;;;8.33;8.33;;;29.20;96825.14;;;;119041;1190;24844;-64
2022/08/14 12:54:17;;;;;;;;;5.25;4.00;;;29.17;96827.91;;;;119038;1189;26131;-64
2022/08/14 12:57:03;;;;;;;;;12.50;9.25;;;29.19;96822.08;;;;119022;1189;26284;-65
2022/08/14 12:59:32;;;;;;;;;11.00;9.50;;;29.18;96816.27;;;;119034;1189;25616;-64
2022/08/14 13:02:23;;;;;;;;;9.50;9.25;;;29.17;96809.18;;;;119003;1189;25005;-64
2022/08/14 13:04:55;;;;;;;;;7.33;5.33;;;29.17;96803.82;;;;119051;1189;25039;-65
2022/08/14 13:07:27;;;;;;;;;9.50;7.25;;;29.14;96797.04;;;;118963;1191;25403;-65
2022/08/14 13:10:01;;;;;;;;;6.50;6.50;;;29.15;96790.47;;;;119014;1188;25531;-63
2022/08/14 13:12:53;;;;;;;;;9.25;7.75;;;29.22;96787.03;;;;118997;1190;25484;-63
2022/08/14 13:15:44;;;;;;;;;9.25;7.75;;;29.29;96787.09;;;;119003;1189;25562;-63
2022/08/14 13:18:30;;;;;;;;;7.00;5.75;;;29.31;96787.81;;;;119026;1190;25441;-64
2022/08/14 13:21:00;;;;;;;;;7.75;7.25;;;29.27;96784.52;;;;118984;1190;25290;-64